sensor_id;sensor_type;location;lat;lon;timestamp;P1;durP1;ratioP1;P2;durP2;ratioP2
56427;SDS011;42331;53.578;9.760;2023-03-09T00:00:43;6.93;;;3.38;;
56427;SDS011;42331;53.578;9.760;2023-03-09T00:03:14;8.60;;;3.88;;
56427;SDS011;42331;53.578;9.760;2023-03-09T00:05:52;7.00;;;4.10;;
56427;SDS011;42331;53.578;9.760;2023-03-09T00:08:27;6.03;;;3.65;;
56427;SDS011;42331;53.578;9.760;2023-03-09T00:10:58;7.00;;;3.70;;
56427;SDS011;42331;53.578;9.760;2023-03-09T00:13:29;8.00;;;4.20;;
56427;SDS011;42331;53.578;9.760;2023-03-09T00:16:07;6.05;;;3.72;;
56427;SDS011;42331;53.578;9.760;2023-03-09T00:18:48;6.78;;;4.20;;
56427;SDS011;42331;53.578;9.760;2023-03-09T00:21:22;7.05;;;4.20;;
56427;SDS011;42331;53.578;9.760;2023-03-09T00:24:07;7.25;;;3.78;;
56427;SDS011;42331;53.578;9.760;2023-03-09T00:26:47;9.30;;;4.30;;
56427;SDS011;42331;53.578;9.760;2023-03-09T00:29:19;5.68;;;3.80;;
56427;SDS011;42331;53.578;9.760;2023-03-09T00:31:50;7.63;;;4.30;;
56427;SDS011;42331;53.578;9.760;2023-03-09T00:34:22;5.53;;;3.88;;
56427;SDS011;42331;53.578;9.760;2023-03-09T00:36:53;5.03;;;2.87;;
56427;SDS011;42331;53.578;9.760;2023-03-09T00:39:24;8.50;;;4.17;;
56427;SDS011;42331;53.578;9.760;2023-03-09T00:41:54;8.90;;;4.27;;
56427;SDS011;42331;53.578;9.760;2023-03-09T00:44:25;9.60;;;3.87;;
56427;SDS011;42331;53.578;9.760;2023-03-09T00:46:56;8.37;;;4.17;;
56427;SDS011;42331;53.578;9.760;2023-03-09T00:49:26;8.20;;;4.63;;
56427;SDS011;42331;53.578;9.760;2023-03-09T00:51:57;9.03;;;4.40;;
56427;SDS011;42331;53.578;9.760;2023-03-09T00:54:28;7.03;;;4.00;;
56427;SDS011;42331;53.578;9.760;2023-03-09T00:56:58;13.83;;;4.37;;
56427;SDS011;42331;53.578;9.760;2023-03-09T00:59:32;7.63;;;3.95;;
56427;SDS011;42331;53.578;9.760;2023-03-09T01:02:02;7.13;;;3.97;;
56427;SDS011;42331;53.578;9.760;2023-03-09T01:04:33;6.83;;;4.17;;
56427;SDS011;42331;53.578;9.760;2023-03-09T01:07:04;9.55;;;4.53;;
56427;SDS011;42331;53.578;9.760;2023-03-09T01:09:36;8.50;;;4.55;;
56427;SDS011;42331;53.578;9.760;2023-03-09T01:12:08;8.85;;;4.65;;
56427;SDS011;42331;53.578;9.760;2023-03-09T01:14:39;8.57;;;4.32;;
56427;SDS011;42331;53.578;9.760;2023-03-09T01:17:09;7.53;;;3.72;;
56427;SDS011;42331;53.578;9.760;2023-03-09T01:19:40;8.37;;;4.20;;
56427;SDS011;42331;53.578;9.760;2023-03-09T01:22:12;11.50;;;4.45;;
56427;SDS011;42331;53.578;9.760;2023-03-09T01:24:42;9.07;;;4.60;;
56427;SDS011;42331;53.578;9.760;2023-03-09T01:27:13;6.23;;;3.30;;
56427;SDS011;42331;53.578;9.760;2023-03-09T01:29:44;9.45;;;4.40;;
56427;SDS011;42331;53.578;9.760;2023-03-09T01:32:15;10.13;;;4.40;;
56427;SDS011;42331;53.578;9.760;2023-03-09T01:34:45;8.63;;;4.73;;
56427;SDS011;42331;53.578;9.760;2023-03-09T01:37:16;8.23;;;5.03;;
56427;SDS011;42331;53.578;9.760;2023-03-09T01:39:47;8.13;;;4.20;;
56427;SDS011;42331;53.578;9.760;2023-03-09T01:42:17;7.87;;;4.40;;
56427;SDS011;42331;53.578;9.760;2023-03-09T01:47:48;9.63;;;4.65;;
56427;SDS011;42331;53.578;9.760;2023-03-09T01:50:21;9.55;;;4.47;;
56427;SDS011;42331;53.578;9.760;2023-03-09T01:52:55;8.98;;;4.18;;
56427;SDS011;42331;53.578;9.760;2023-03-09T01:55:36;8.90;;;4.53;;
56427;SDS011;42331;53.578;9.760;2023-03-09T01:58:11;9.07;;;4.43;;
56427;SDS011;42331;53.578;9.760;2023-03-09T02:00:47;11.90;;;4.80;;
56427;SDS011;42331;53.578;9.760;2023-03-09T02:03:22;7.93;;;4.70;;
56427;SDS011;42331;53.578;9.760;2023-03-09T02:09:44;9.25;;;4.88;;
56427;SDS011;42331;53.578;9.760;2023-03-09T02:12:38;7.55;;;4.88;;
56427;SDS011;42331;53.578;9.760;2023-03-09T02:15:10;8.45;;;4.55;;
56427;SDS011;42331;53.578;9.760;2023-03-09T02:17:41;7.47;;;4.40;;
56427;SDS011;42331;53.578;9.760;2023-03-09T02:22:49;8.55;;;4.80;;
56427;SDS011;42331;53.578;9.760;2023-03-09T02:27:58;10.15;;;4.88;;
56427;SDS011;42331;53.578;9.760;2023-03-09T02:30:30;10.20;;;4.70;;
56427;SDS011;42331;53.578;9.760;2023-03-09T02:33:06;7.50;;;4.90;;
56427;SDS011;42331;53.578;9.760;2023-03-09T02:35:39;8.70;;;5.45;;
56427;SDS011;42331;53.578;9.760;2023-03-09T02:38:10;9.33;;;5.10;;
56427;SDS011;42331;53.578;9.760;2023-03-09T02:40:43;8.18;;;4.80;;
56427;SDS011;42331;53.578;9.760;2023-03-09T02:43:15;8.07;;;4.93;;
56427;SDS011;42331;53.578;9.760;2023-03-09T02:45:49;8.25;;;5.13;;
56427;SDS011;42331;53.578;9.760;2023-03-09T02:48:21;8.82;;;5.00;;
56427;SDS011;42331;53.578;9.760;2023-03-09T02:50:51;10.97;;;4.90;;
56427;SDS011;42331;53.578;9.760;2023-03-09T02:53:22;6.60;;;4.60;;
56427;SDS011;42331;53.578;9.760;2023-03-09T02:55:53;8.90;;;4.67;;
56427;SDS011;42331;53.578;9.760;2023-03-09T02:58:24;11.83;;;4.90;;
56427;SDS011;42331;53.578;9.760;2023-03-09T03:00:55;8.97;;;4.77;;
56427;SDS011;42331;53.578;9.760;2023-03-09T03:03:26;8.53;;;4.70;;
56427;SDS011;42331;53.578;9.760;2023-03-09T03:05:57;9.43;;;4.80;;
56427;SDS011;42331;53.578;9.760;2023-03-09T03:08:28;8.43;;;4.40;;
56427;SDS011;42331;53.578;9.760;2023-03-09T03:11:00;7.53;;;4.28;;
56427;SDS011;42331;53.578;9.760;2023-03-09T03:13:32;6.82;;;4.30;;
56427;SDS011;42331;53.578;9.760;2023-03-09T03:16:02;10.13;;;4.30;;
56427;SDS011;42331;53.578;9.760;2023-03-09T03:18:34;8.52;;;4.32;;
56427;SDS011;42331;53.578;9.760;2023-03-09T03:21:04;9.03;;;5.00;;
56427;SDS011;42331;53.578;9.760;2023-03-09T03:23:35;10.63;;;4.90;;
56427;SDS011;42331;53.578;9.760;2023-03-09T03:26:06;7.90;;;4.83;;
56427;SDS011;42331;53.578;9.760;2023-03-09T03:28:38;8.82;;;4.30;;
56427;SDS011;42331;53.578;9.760;2023-03-09T03:31:09;10.77;;;4.93;;
56427;SDS011;42331;53.578;9.760;2023-03-09T03:33:41;8.60;;;4.70;;
56427;SDS011;42331;53.578;9.760;2023-03-09T03:36:11;8.27;;;4.87;;
56427;SDS011;42331;53.578;9.760;2023-03-09T03:38:42;9.10;;;4.27;;
56427;SDS011;42331;53.578;9.760;2023-03-09T03:41:13;5.87;;;3.83;;
56427;SDS011;42331;53.578;9.760;2023-03-09T03:43:43;10.37;;;4.90;;
56427;SDS011;42331;53.578;9.760;2023-03-09T03:46:14;9.20;;;4.90;;
56427;SDS011;42331;53.578;9.760;2023-03-09T03:48:45;7.67;;;4.53;;
56427;SDS011;42331;53.578;9.760;2023-03-09T03:51:16;8.67;;;4.90;;
56427;SDS011;42331;53.578;9.760;2023-03-09T03:53:47;8.53;;;4.73;;
56427;SDS011;42331;53.578;9.760;2023-03-09T03:56:18;9.30;;;5.07;;
56427;SDS011;42331;53.578;9.760;2023-03-09T03:58:48;9.30;;;4.23;;
56427;SDS011;42331;53.578;9.760;2023-03-09T04:01:19;10.17;;;5.67;;
56427;SDS011;42331;53.578;9.760;2023-03-09T04:03:50;9.80;;;5.20;;
56427;SDS011;42331;53.578;9.760;2023-03-09T04:06:20;5.73;;;3.83;;
56427;SDS011;42331;53.578;9.760;2023-03-09T04:08:51;8.80;;;5.53;;
56427;SDS011;42331;53.578;9.760;2023-03-09T04:11:22;8.70;;;5.67;;
56427;SDS011;42331;53.578;9.760;2023-03-09T04:13:53;9.23;;;5.63;;
56427;SDS011;42331;53.578;9.760;2023-03-09T04:16:23;11.40;;;4.43;;
56427;SDS011;42331;53.578;9.760;2023-03-09T04:18:54;12.03;;;5.40;;
56427;SDS011;42331;53.578;9.760;2023-03-09T04:21:25;9.90;;;5.73;;
56427;SDS011;42331;53.578;9.760;2023-03-09T04:23:55;9.10;;;5.57;;
56427;SDS011;42331;53.578;9.760;2023-03-09T04:26:26;10.57;;;5.73;;
56427;SDS011;42331;53.578;9.760;2023-03-09T04:28:57;9.40;;;5.73;;
56427;SDS011;42331;53.578;9.760;2023-03-09T04:31:28;9.93;;;6.10;;
56427;SDS011;42331;53.578;9.760;2023-03-09T04:33:58;9.13;;;5.83;;
56427;SDS011;42331;53.578;9.760;2023-03-09T04:36:29;9.57;;;5.97;;
56427;SDS011;42331;53.578;9.760;2023-03-09T04:39:00;10.90;;;6.25;;
56427;SDS011;42331;53.578;9.760;2023-03-09T04:41:31;11.17;;;5.70;;
56427;SDS011;42331;53.578;9.760;2023-03-09T04:44:02;11.23;;;5.57;;
56427;SDS011;42331;53.578;9.760;2023-03-09T04:46:33;7.17;;;4.77;;
56427;SDS011;42331;53.578;9.760;2023-03-09T04:49:04;11.07;;;4.93;;
56427;SDS011;42331;53.578;9.760;2023-03-09T04:51:34;8.83;;;5.87;;
56427;SDS011;42331;53.578;9.760;2023-03-09T04:54:05;11.10;;;6.00;;
56427;SDS011;42331;53.578;9.760;2023-03-09T04:56:36;7.45;;;5.03;;
56427;SDS011;42331;53.578;9.760;2023-03-09T04:59:06;6.80;;;4.60;;
56427;SDS011;42331;53.578;9.760;2023-03-09T05:01:37;10.93;;;5.97;;
56427;SDS011;42331;53.578;9.760;2023-03-09T05:04:08;12.67;;;6.97;;
56427;SDS011;42331;53.578;9.760;2023-03-09T05:06:39;10.82;;;6.68;;
56427;SDS011;42331;53.578;9.760;2023-03-09T05:09:10;12.47;;;7.20;;
56427;SDS011;42331;53.578;9.760;2023-03-09T05:11:41;7.53;;;4.67;;
56427;SDS011;42331;53.578;9.760;2023-03-09T05:14:13;13.27;;;5.97;;
56427;SDS011;42331;53.578;9.760;2023-03-09T05:16:43;13.03;;;6.80;;
56427;SDS011;42331;53.578;9.760;2023-03-09T05:19:15;14.70;;;6.18;;
56427;SDS011;42331;53.578;9.760;2023-03-09T05:21:45;9.47;;;5.33;;
56427;SDS011;42331;53.578;9.760;2023-03-09T05:24:16;12.88;;;6.78;;
56427;SDS011;42331;53.578;9.760;2023-03-09T05:26:47;12.07;;;6.63;;
56427;SDS011;42331;53.578;9.760;2023-03-09T05:29:18;10.37;;;6.60;;
56427;SDS011;42331;53.578;9.760;2023-03-09T05:31:48;11.93;;;7.40;;
56427;SDS011;42331;53.578;9.760;2023-03-09T05:34:19;11.27;;;5.33;;
56427;SDS011;42331;53.578;9.760;2023-03-09T05:36:50;12.50;;;6.93;;
56427;SDS011;42331;53.578;9.760;2023-03-09T05:39:20;15.27;;;7.27;;
56427;SDS011;42331;53.578;9.760;2023-03-09T05:41:52;10.75;;;5.53;;
56427;SDS011;42331;53.578;9.760;2023-03-09T05:44:22;16.27;;;7.40;;
56427;SDS011;42331;53.578;9.760;2023-03-09T05:46:53;14.40;;;7.67;;
56427;SDS011;42331;53.578;9.760;2023-03-09T05:49:24;16.27;;;7.57;;
56427;SDS011;42331;53.578;9.760;2023-03-09T05:51:58;12.82;;;7.18;;
56427;SDS011;42331;53.578;9.760;2023-03-09T05:54:29;13.98;;;8.05;;
56427;SDS011;42331;53.578;9.760;2023-03-09T05:57:00;14.30;;;8.07;;
56427;SDS011;42331;53.578;9.760;2023-03-09T05:59:30;17.03;;;8.10;;
56427;SDS011;42331;53.578;9.760;2023-03-09T06:02:01;14.77;;;8.10;;
56427;SDS011;42331;53.578;9.760;2023-03-09T06:04:32;13.60;;;7.93;;
56427;SDS011;42331;53.578;9.760;2023-03-09T06:07:03;15.88;;;8.27;;
56427;SDS011;42331;53.578;9.760;2023-03-09T06:09:34;13.87;;;8.37;;
56427;SDS011;42331;53.578;9.760;2023-03-09T06:12:04;17.47;;;9.33;;
56427;SDS011;42331;53.578;9.760;2023-03-09T06:14:36;16.38;;;7.80;;
56427;SDS011;42331;53.578;9.760;2023-03-09T06:17:06;12.73;;;7.60;;
56427;SDS011;42331;53.578;9.760;2023-03-09T06:19:37;12.60;;;6.17;;
56427;SDS011;42331;53.578;9.760;2023-03-09T06:22:08;16.27;;;8.70;;
56427;SDS011;42331;53.578;9.760;2023-03-09T06:24:39;17.87;;;9.90;;
56427;SDS011;42331;53.578;9.760;2023-03-09T06:27:10;14.57;;;9.20;;
56427;SDS011;42331;53.578;9.760;2023-03-09T06:29:41;16.43;;;9.83;;
56427;SDS011;42331;53.578;9.760;2023-03-09T06:32:11;15.07;;;8.40;;
56427;SDS011;42331;53.578;9.760;2023-03-09T06:34:42;13.73;;;7.03;;
56427;SDS011;42331;53.578;9.760;2023-03-09T06:37:13;17.23;;;9.33;;
56427;SDS011;42331;53.578;9.760;2023-03-09T06:39:44;15.40;;;8.80;;
56427;SDS011;42331;53.578;9.760;2023-03-09T06:42:14;16.53;;;9.03;;
56427;SDS011;42331;53.578;9.760;2023-03-09T06:44:45;15.27;;;8.80;;
56427;SDS011;42331;53.578;9.760;2023-03-09T06:47:16;14.87;;;8.27;;
56427;SDS011;42331;53.578;9.760;2023-03-09T06:49:46;14.47;;;8.10;;
56427;SDS011;42331;53.578;9.760;2023-03-09T06:52:17;16.73;;;8.40;;
56427;SDS011;42331;53.578;9.760;2023-03-09T06:54:48;15.77;;;8.77;;
56427;SDS011;42331;53.578;9.760;2023-03-09T06:57:18;19.10;;;8.23;;
56427;SDS011;42331;53.578;9.760;2023-03-09T06:59:49;14.13;;;8.40;;
56427;SDS011;42331;53.578;9.760;2023-03-09T07:02:20;13.40;;;7.97;;
56427;SDS011;42331;53.578;9.760;2023-03-09T07:04:50;15.70;;;7.50;;
56427;SDS011;42331;53.578;9.760;2023-03-09T07:07:21;17.13;;;8.57;;
56427;SDS011;42331;53.578;9.760;2023-03-09T07:09:52;15.80;;;8.20;;
56427;SDS011;42331;53.578;9.760;2023-03-09T07:12:22;11.43;;;6.57;;
56427;SDS011;42331;53.578;9.760;2023-03-09T07:14:53;17.37;;;8.77;;
56427;SDS011;42331;53.578;9.760;2023-03-09T07:17:24;14.30;;;8.40;;
56427;SDS011;42331;53.578;9.760;2023-03-09T07:19:55;16.20;;;8.53;;
56427;SDS011;42331;53.578;9.760;2023-03-09T07:24:57;18.83;;;9.20;;
56427;SDS011;42331;53.578;9.760;2023-03-09T07:27:28;15.50;;;8.47;;
56427;SDS011;42331;53.578;9.760;2023-03-09T07:30:00;18.95;;;9.18;;
56427;SDS011;42331;53.578;9.760;2023-03-09T07:32:31;13.53;;;8.77;;
56427;SDS011;42331;53.578;9.760;2023-03-09T07:35:01;15.13;;;8.15;;
56427;SDS011;42331;53.578;9.760;2023-03-09T07:37:32;13.75;;;8.45;;
56427;SDS011;42331;53.578;9.760;2023-03-09T07:40:03;14.67;;;8.63;;
56427;SDS011;42331;53.578;9.760;2023-03-09T07:42:34;13.07;;;8.65;;
56427;SDS011;42331;53.578;9.760;2023-03-09T07:45:05;15.80;;;8.67;;
56427;SDS011;42331;53.578;9.760;2023-03-09T07:47:37;15.93;;;8.57;;
56427;SDS011;42331;53.578;9.760;2023-03-09T07:50:08;14.87;;;8.57;;
56427;SDS011;42331;53.578;9.760;2023-03-09T07:52:39;12.55;;;7.93;;
56427;SDS011;42331;53.578;9.760;2023-03-09T07:55:11;14.75;;;8.55;;
56427;SDS011;42331;53.578;9.760;2023-03-09T07:57:43;14.65;;;8.60;;
56427;SDS011;42331;53.578;9.760;2023-03-09T08:00:14;16.60;;;9.10;;
56427;SDS011;42331;53.578;9.760;2023-03-09T08:02:50;14.82;;;8.52;;
56427;SDS011;42331;53.578;9.760;2023-03-09T08:05:21;15.00;;;8.63;;
56427;SDS011;42331;53.578;9.760;2023-03-09T08:07:52;16.38;;;9.23;;
56427;SDS011;42331;53.578;9.760;2023-03-09T08:10:23;14.10;;;8.40;;
56427;SDS011;42331;53.578;9.760;2023-03-09T08:12:53;17.05;;;9.68;;
56427;SDS011;42331;53.578;9.760;2023-03-09T08:15:24;15.43;;;8.83;;
56427;SDS011;42331;53.578;9.760;2023-03-09T08:17:55;13.13;;;7.93;;
56427;SDS011;42331;53.578;9.760;2023-03-09T08:20:26;14.17;;;8.63;;
56427;SDS011;42331;53.578;9.760;2023-03-09T08:22:56;10.27;;;6.78;;
56427;SDS011;42331;53.578;9.760;2023-03-09T08:25:27;15.18;;;8.65;;
56427;SDS011;42331;53.578;9.760;2023-03-09T08:27:59;15.32;;;8.95;;
56427;SDS011;42331;53.578;9.760;2023-03-09T08:30:30;14.55;;;8.80;;
56427;SDS011;42331;53.578;9.760;2023-03-09T08:33:01;13.77;;;8.55;;
56427;SDS011;42331;53.578;9.760;2023-03-09T08:35:31;15.50;;;9.00;;
56427;SDS011;42331;53.578;9.760;2023-03-09T08:38:02;15.27;;;8.98;;
56427;SDS011;42331;53.578;9.760;2023-03-09T08:40:33;17.20;;;8.63;;
56427;SDS011;42331;53.578;9.760;2023-03-09T08:43:04;10.38;;;6.53;;
56427;SDS011;42331;53.578;9.760;2023-03-09T08:45:36;15.57;;;9.15;;
56427;SDS011;42331;53.578;9.760;2023-03-09T08:48:08;17.25;;;9.10;;
56427;SDS011;42331;53.578;9.760;2023-03-09T08:50:39;19.48;;;9.32;;
56427;SDS011;42331;53.578;9.760;2023-03-09T08:53:11;15.43;;;8.80;;
56427;SDS011;42331;53.578;9.760;2023-03-09T08:55:41;15.50;;;8.95;;
56427;SDS011;42331;53.578;9.760;2023-03-09T08:58:12;14.47;;;9.13;;
56427;SDS011;42331;53.578;9.760;2023-03-09T09:00:43;15.05;;;8.82;;
56427;SDS011;42331;53.578;9.760;2023-03-09T09:03:14;14.77;;;9.15;;
56427;SDS011;42331;53.578;9.760;2023-03-09T09:05:45;16.08;;;8.95;;
56427;SDS011;42331;53.578;9.760;2023-03-09T09:08:15;16.13;;;8.83;;
56427;SDS011;42331;53.578;9.760;2023-03-09T09:10:46;14.68;;;8.18;;
56427;SDS011;42331;53.578;9.760;2023-03-09T09:13:16;13.98;;;8.52;;
56427;SDS011;42331;53.578;9.760;2023-03-09T09:15:51;14.88;;;7.90;;
56427;SDS011;42331;53.578;9.760;2023-03-09T09:18:25;18.95;;;8.60;;
56427;SDS011;42331;53.578;9.760;2023-03-09T09:20:56;16.50;;;8.48;;
56427;SDS011;42331;53.578;9.760;2023-03-09T09:23:28;14.23;;;7.85;;
56427;SDS011;42331;53.578;9.760;2023-03-09T09:25:58;14.55;;;8.30;;
56427;SDS011;42331;53.578;9.760;2023-03-09T09:28:32;12.85;;;7.72;;
56427;SDS011;42331;53.578;9.760;2023-03-09T09:31:03;11.38;;;7.60;;
56427;SDS011;42331;53.578;9.760;2023-03-09T09:33:34;12.70;;;7.22;;
56427;SDS011;42331;53.578;9.760;2023-03-09T09:36:07;15.88;;;7.20;;
56427;SDS011;42331;53.578;9.760;2023-03-09T09:38:41;10.80;;;6.95;;
56427;SDS011;42331;53.578;9.760;2023-03-09T09:41:30;12.63;;;7.10;;
56427;SDS011;42331;53.578;9.760;2023-03-09T09:44:30;12.07;;;6.95;;
56427;SDS011;42331;53.578;9.760;2023-03-09T09:47:07;12.32;;;6.45;;
56427;SDS011;42331;53.578;9.760;2023-03-09T09:49:43;11.70;;;6.50;;
56427;SDS011;42331;53.578;9.760;2023-03-09T09:55:24;11.20;;;6.70;;
56427;SDS011;42331;53.578;9.760;2023-03-09T09:58:00;13.60;;;6.83;;
56427;SDS011;42331;53.578;9.760;2023-03-09T10:00:43;10.25;;;6.15;;
56427;SDS011;42331;53.578;9.760;2023-03-09T10:03:37;11.13;;;6.63;;
56427;SDS011;42331;53.578;9.760;2023-03-09T10:06:17;10.95;;;6.47;;
56427;SDS011;42331;53.578;9.760;2023-03-09T10:08:56;13.85;;;7.68;;
56427;SDS011;42331;53.578;9.760;2023-03-09T10:11:35;13.40;;;6.55;;
56427;SDS011;42331;53.578;9.760;2023-03-09T10:17:06;11.32;;;6.43;;
56427;SDS011;42331;53.578;9.760;2023-03-09T10:19:50;13.15;;;6.68;;
56427;SDS011;42331;53.578;9.760;2023-03-09T10:22:22;9.75;;;6.05;;
56427;SDS011;42331;53.578;9.760;2023-03-09T10:24:55;10.88;;;6.75;;
56427;SDS011;42331;53.578;9.760;2023-03-09T10:27:27;11.20;;;5.95;;
56427;SDS011;42331;53.578;9.760;2023-03-09T10:32:56;11.52;;;7.22;;
56427;SDS011;42331;53.578;9.760;2023-03-09T10:38:35;12.45;;;7.22;;
56427;SDS011;42331;53.578;9.760;2023-03-09T10:41:15;10.80;;;6.40;;
56427;SDS011;42331;53.578;9.760;2023-03-09T10:43:48;12.32;;;7.18;;
56427;SDS011;42331;53.578;9.760;2023-03-09T10:46:20;11.82;;;7.07;;
56427;SDS011;42331;53.578;9.760;2023-03-09T10:49:11;10.68;;;7.05;;
56427;SDS011;42331;53.578;9.760;2023-03-09T10:51:44;14.13;;;7.07;;
56427;SDS011;42331;53.578;9.760;2023-03-09T10:54:40;11.38;;;6.43;;
56427;SDS011;42331;53.578;9.760;2023-03-09T10:59:56;12.07;;;6.40;;
56427;SDS011;42331;53.578;9.760;2023-03-09T11:02:50;9.85;;;6.07;;
56427;SDS011;42331;53.578;9.760;2023-03-09T11:12:59;11.82;;;6.38;;
56427;SDS011;42331;53.578;9.760;2023-03-09T11:15:32;10.05;;;6.25;;
56427;SDS011;42331;53.578;9.760;2023-03-09T11:18:09;13.25;;;6.05;;
56427;SDS011;42331;53.578;9.760;2023-03-09T11:20:59;8.90;;;5.78;;
56427;SDS011;42331;53.578;9.760;2023-03-09T11:23:32;10.73;;;6.45;;
56427;SDS011;42331;53.578;9.760;2023-03-09T11:29:13;13.70;;;6.70;;
56427;SDS011;42331;53.578;9.760;2023-03-09T11:31:52;9.20;;;5.93;;
56427;SDS011;42331;53.578;9.760;2023-03-09T11:34:27;11.60;;;7.00;;
56427;SDS011;42331;53.578;9.760;2023-03-09T11:37:12;11.07;;;6.32;;
56427;SDS011;42331;53.578;9.760;2023-03-09T11:45:04;10.95;;;5.70;;
56427;SDS011;42331;53.578;9.760;2023-03-09T11:50:54;7.65;;;5.35;;
56427;SDS011;42331;53.578;9.760;2023-03-09T11:58:54;12.10;;;5.88;;
56427;SDS011;42331;53.578;9.760;2023-03-09T12:01:45;12.65;;;5.60;;
56427;SDS011;42331;53.578;9.760;2023-03-09T12:04:17;11.45;;;5.97;;
56427;SDS011;42331;53.578;9.760;2023-03-09T12:07:10;8.18;;;5.88;;
56427;SDS011;42331;53.578;9.760;2023-03-09T12:10:05;11.90;;;5.60;;
56427;SDS011;42331;53.578;9.760;2023-03-09T12:15:17;10.35;;;6.18;;
56427;SDS011;42331;53.578;9.760;2023-03-09T12:17:59;8.25;;;5.57;;
56427;SDS011;42331;53.578;9.760;2023-03-09T12:23:04;11.10;;;5.90;;
56427;SDS011;42331;53.578;9.760;2023-03-09T12:25:55;7.40;;;4.78;;
56427;SDS011;42331;53.578;9.760;2023-03-09T12:30:57;10.15;;;4.93;;
56427;SDS011;42331;53.578;9.760;2023-03-09T12:36:21;7.75;;;4.95;;
56427;SDS011;42331;53.578;9.760;2023-03-09T12:47:25;8.43;;;4.80;;
56427;SDS011;42331;53.578;9.760;2023-03-09T12:50:05;7.88;;;4.35;;
56427;SDS011;42331;53.578;9.760;2023-03-09T12:55:54;10.40;;;5.35;;
56427;SDS011;42331;53.578;9.760;2023-03-09T12:58:28;8.50;;;5.05;;
56427;SDS011;42331;53.578;9.760;2023-03-09T13:03:48;9.90;;;4.70;;
56427;SDS011;42331;53.578;9.760;2023-03-09T13:06:32;11.05;;;5.75;;
56427;SDS011;42331;53.578;9.760;2023-03-09T13:09:36;8.30;;;5.03;;
56427;SDS011;42331;53.578;9.760;2023-03-09T13:12:17;8.20;;;4.82;;
56427;SDS011;42331;53.578;9.760;2023-03-09T13:20:13;11.45;;;5.82;;
56427;SDS011;42331;53.578;9.760;2023-03-09T13:22:44;10.15;;;5.22;;
56427;SDS011;42331;53.578;9.760;2023-03-09T13:25:27;8.25;;;5.50;;
56427;SDS011;42331;53.578;9.760;2023-03-09T13:28:26;8.20;;;5.07;;
56427;SDS011;42331;53.578;9.760;2023-03-09T13:31:17;11.05;;;6.03;;
56427;SDS011;42331;53.578;9.760;2023-03-09T13:33:56;9.57;;;5.30;;
56427;SDS011;42331;53.578;9.760;2023-03-09T13:36:29;8.15;;;4.90;;
56427;SDS011;42331;53.578;9.760;2023-03-09T13:39:03;7.40;;;5.05;;
56427;SDS011;42331;53.578;9.760;2023-03-09T13:41:42;7.75;;;5.10;;
56427;SDS011;42331;53.578;9.760;2023-03-09T13:44:13;8.15;;;5.45;;
56427;SDS011;42331;53.578;9.760;2023-03-09T13:46:51;12.20;;;5.43;;
56427;SDS011;42331;53.578;9.760;2023-03-09T13:49:31;8.63;;;5.60;;
56427;SDS011;42331;53.578;9.760;2023-03-09T13:52:15;8.38;;;5.53;;
56427;SDS011;42331;53.578;9.760;2023-03-09T13:54:53;10.57;;;5.10;;
56427;SDS011;42331;53.578;9.760;2023-03-09T14:00:15;10.60;;;5.72;;
56427;SDS011;42331;53.578;9.760;2023-03-09T14:02:52;13.15;;;5.75;;
56427;SDS011;42331;53.578;9.760;2023-03-09T14:05:24;7.93;;;5.70;;
56427;SDS011;42331;53.578;9.760;2023-03-09T14:07:56;7.78;;;5.57;;
56427;SDS011;42331;53.578;9.760;2023-03-09T14:10:30;9.10;;;6.05;;
56427;SDS011;42331;53.578;9.760;2023-03-09T14:13:11;10.27;;;6.28;;
56427;SDS011;42331;53.578;9.760;2023-03-09T14:15:58;8.35;;;5.82;;
56427;SDS011;42331;53.578;9.760;2023-03-09T14:18:34;12.38;;;6.15;;
56427;SDS011;42331;53.578;9.760;2023-03-09T14:24:10;8.60;;;6.07;;
56427;SDS011;42331;53.578;9.760;2023-03-09T14:26:42;11.98;;;6.70;;
56427;SDS011;42331;53.578;9.760;2023-03-09T14:31:47;12.63;;;6.82;;
56427;SDS011;42331;53.578;9.760;2023-03-09T14:34:24;16.67;;;7.25;;
56427;SDS011;42331;53.578;9.760;2023-03-09T14:37:12;11.35;;;7.53;;
56427;SDS011;42331;53.578;9.760;2023-03-09T14:39:59;10.63;;;6.60;;
56427;SDS011;42331;53.578;9.760;2023-03-09T14:42:31;8.38;;;6.25;;
56427;SDS011;42331;53.578;9.760;2023-03-09T14:47:46;8.80;;;6.53;;
56427;SDS011;42331;53.578;9.760;2023-03-09T14:50:28;13.60;;;6.93;;
56427;SDS011;42331;53.578;9.760;2023-03-09T14:53:03;10.48;;;6.57;;
56427;SDS011;42331;53.578;9.760;2023-03-09T14:55:36;10.55;;;6.82;;
56427;SDS011;42331;53.578;9.760;2023-03-09T14:58:14;9.30;;;7.32;;
56427;SDS011;42331;53.578;9.760;2023-03-09T15:00:55;11.98;;;7.53;;
56427;SDS011;42331;53.578;9.760;2023-03-09T15:03:27;9.23;;;7.33;;
56427;SDS011;42331;53.578;9.760;2023-03-09T15:06:39;9.70;;;7.45;;
56427;SDS011;42331;53.578;9.760;2023-03-09T15:09:19;12.60;;;7.47;;
56427;SDS011;42331;53.578;9.760;2023-03-09T15:12:03;10.30;;;7.30;;
56427;SDS011;42331;53.578;9.760;2023-03-09T15:14:39;9.88;;;6.97;;
56427;SDS011;42331;53.578;9.760;2023-03-09T15:17:16;8.60;;;6.63;;
56427;SDS011;42331;53.578;9.760;2023-03-09T15:19:49;9.07;;;6.82;;
56427;SDS011;42331;53.578;9.760;2023-03-09T15:22:20;9.60;;;6.80;;
56427;SDS011;42331;53.578;9.760;2023-03-09T15:24:51;9.82;;;6.40;;
56427;SDS011;42331;53.578;9.760;2023-03-09T15:27:22;9.25;;;6.05;;
56427;SDS011;42331;53.578;9.760;2023-03-09T15:29:52;10.93;;;6.97;;
56427;SDS011;42331;53.578;9.760;2023-03-09T15:32:23;12.77;;;6.43;;
56427;SDS011;42331;53.578;9.760;2023-03-09T15:34:54;9.27;;;5.85;;
56427;SDS011;42331;53.578;9.760;2023-03-09T15:37:25;9.95;;;5.38;;
56427;SDS011;42331;53.578;9.760;2023-03-09T15:39:56;8.98;;;5.75;;
56427;SDS011;42331;53.578;9.760;2023-03-09T15:44:58;8.20;;;4.82;;
56427;SDS011;42331;53.578;9.760;2023-03-09T15:47:31;8.88;;;4.70;;
56427;SDS011;42331;53.578;9.760;2023-03-09T15:50:03;9.98;;;5.10;;
56427;SDS011;42331;53.578;9.760;2023-03-09T15:52:35;10.45;;;5.55;;
56427;SDS011;42331;53.578;9.760;2023-03-09T15:55:08;8.18;;;4.90;;
56427;SDS011;42331;53.578;9.760;2023-03-09T15:57:42;8.55;;;5.28;;
56427;SDS011;42331;53.578;9.760;2023-03-09T16:00:13;8.20;;;5.10;;
56427;SDS011;42331;53.578;9.760;2023-03-09T16:02:45;7.85;;;5.53;;
56427;SDS011;42331;53.578;9.760;2023-03-09T16:05:16;9.13;;;5.20;;
56427;SDS011;42331;53.578;9.760;2023-03-09T16:07:46;8.27;;;4.97;;
56427;SDS011;42331;53.578;9.760;2023-03-09T16:10:17;7.38;;;3.78;;
56427;SDS011;42331;53.578;9.760;2023-03-09T16:12:48;8.73;;;4.78;;
56427;SDS011;42331;53.578;9.760;2023-03-09T16:15:19;9.35;;;5.38;;
56427;SDS011;42331;53.578;9.760;2023-03-09T16:17:50;7.17;;;5.00;;
56427;SDS011;42331;53.578;9.760;2023-03-09T16:20:21;9.88;;;5.03;;
56427;SDS011;42331;53.578;9.760;2023-03-09T16:22:51;8.02;;;5.45;;
56427;SDS011;42331;53.578;9.760;2023-03-09T16:25:22;8.73;;;5.28;;
56427;SDS011;42331;53.578;9.760;2023-03-09T16:27:53;6.35;;;4.65;;
56427;SDS011;42331;53.578;9.760;2023-03-09T16:30:24;6.50;;;4.85;;
56427;SDS011;42331;53.578;9.760;2023-03-09T16:32:54;7.70;;;4.82;;
56427;SDS011;42331;53.578;9.760;2023-03-09T16:35:25;10.60;;;5.10;;
56427;SDS011;42331;53.578;9.760;2023-03-09T16:37:56;7.72;;;5.20;;
56427;SDS011;42331;53.578;9.760;2023-03-09T16:40:27;6.80;;;4.82;;
56427;SDS011;42331;53.578;9.760;2023-03-09T16:42:58;8.00;;;5.05;;
56427;SDS011;42331;53.578;9.760;2023-03-09T16:45:28;11.97;;;5.27;;
56427;SDS011;42331;53.578;9.760;2023-03-09T16:47:59;5.20;;;3.42;;
56427;SDS011;42331;53.578;9.760;2023-03-09T16:50:30;8.02;;;4.82;;
56427;SDS011;42331;53.578;9.760;2023-03-09T16:53:04;8.50;;;5.05;;
56427;SDS011;42331;53.578;9.760;2023-03-09T16:55:35;8.65;;;5.30;;